Time;durP1;ratioP1;P1;durP2;ratioP2;P2;SDS_P1;SDS_P2;PMS_P1;PMS_P2;Temp;Humidity;BMP_temperature;BMP_pressure;BME280_temperature;BME280_humidity;BME280_pressure;Samples;Min_cycle;Max_cycle;Signal;HPM_P1;HPM_P2
2021/09/21 00:01:47;;;;;;;;;;;21.20;70.40;;;;;;5015204;28;1085;-77
2021/09/21 00:04:13;;;;;;;;;;;21.20;70.50;;;;;;5030471;28;1254;-78
2021/09/21 00:06:38;;;;;;;;;;;21.20;70.50;;;;;;5042553;28;1006;-79
2021/09/21 00:09:03;;;;;;;;;;;21.20;70.50;;;;;;5024474;28;1914;-77
2021/09/21 00:11:29;;;;;;;;;;;21.20;70.50;;;;;;5042952;28;1061;-78
2021/09/21 00:13:54;;;;;;;;;;;21.20;70.50;;;;;;5038589;28;1257;-77
2021/09/21 00:16:20;;;;;;;;;;;21.20;70.60;;;;;;5026613;28;1169;-77
2021/09/21 00:18:45;;;;;;;;;;;21.20;70.60;;;;;;5043035;28;1257;-77
2021/09/21 00:21:11;;;;;;;;;;;21.20;70.60;;;;;;5026602;28;1213;-77
2021/09/21 00:23:37;;;;;;;;;;;21.20;70.60;;;;;;5040990;28;1273;-77
2021/09/21 00:26:02;;;;;;;;;;;21.20;70.70;;;;;;5017887;28;1164;-78
2021/09/21 00:28:27;;;;;;;;;;;21.20;70.70;;;;;;5017050;28;1906;-77
2021/09/21 00:30:53;;;;;;;;;;;21.20;70.70;;;;;;5014816;28;1093;-77
2021/09/21 00:33:20;;;;;;;;;;;21.20;70.70;;;;;;5015768;28;1310;-77
2021/09/21 00:35:47;;;;;;;;;;;21.20;70.70;;;;;;5018084;28;1279;-77
2021/09/21 00:38:13;;;;;;;;;;;21.20;70.80;;;;;;5018547;28;1314;-77
2021/09/21 00:40:38;;;;;;;;;;;21.20;70.70;;;;;;5014813;28;1154;-77
2021/09/21 00:43:04;;;;;;;;;;;21.20;70.80;;;;;;5032215;28;1239;-77
2021/09/21 00:45:29;;;;;;;;;;;21.20;70.80;;;;;;5034225;28;1057;-77
2021/09/21 00:47:55;;;;;;;;;;;21.20;70.80;;;;;;5033976;28;1914;-77
2021/09/21 00:50:21;;;;;;;;;;;21.20;70.80;;;;;;5022139;28;1050;-77
2021/09/21 00:52:47;;;;;;;;;;;21.20;70.80;;;;;;5015643;28;1277;-78
2021/09/21 00:55:12;;;;;;;;;;;21.20;70.80;;;;;;5015200;28;1296;-77
2021/09/21 00:57:37;;;;;;;;;;;21.20;70.80;;;;;;5028533;28;1308;-77
2021/09/21 01:00:04;;;;;;;;;;;21.20;70.80;;;;;;5047299;28;1174;-77
2021/09/21 01:02:29;;;;;;;;;;;21.10;70.80;;;;;;5018073;28;1214;-77
2021/09/21 01:04:55;;;;;;;;;;;21.20;70.90;;;;;;5018247;28;1273;-77
2021/09/21 01:07:20;;;;;;;;;;;21.10;70.80;;;;;;5034042;28;1069;-77
2021/09/21 01:09:46;;;;;;;;;;;21.10;70.80;;;;;;5027970;28;1969;-77
2021/09/21 01:12:11;;;;;;;;;;;21.10;70.80;;;;;;5014782;28;1117;-77
2021/09/21 01:14:37;;;;;;;;;;;21.10;70.90;;;;;;5033774;28;1199;-78
2021/09/21 01:17:02;;;;;;;;;;;21.20;71.00;;;;;;5030357;28;1117;-77
2021/09/21 01:19:27;;;;;;;;;;;21.10;70.90;;;;;;5034384;28;1219;-77
2021/09/21 01:21:53;;;;;;;;;;;21.10;70.90;;;;;;5033865;28;1073;-77
2021/09/21 01:24:19;;;;;;;;;;;21.10;70.90;;;;;;5033914;28;1084;-77
2021/09/21 01:26:44;;;;;;;;;;;21.10;70.90;;;;;;5030105;28;1234;-77
2021/09/21 01:29:10;;;;;;;;;;;21.20;71.00;;;;;;5034161;28;1936;-78
2021/09/21 01:31:35;;;;;;;;;;;21.10;71.00;;;;;;5034481;28;1132;-77
2021/09/21 01:34:00;;;;;;;;;;;21.10;71.00;;;;;;5015194;28;1197;-78
2021/09/21 01:36:26;;;;;;;;;;;21.10;71.00;;;;;;5014172;28;1173;-77
2021/09/21 01:38:52;;;;;;;;;;;21.10;71.00;;;;;;5017256;28;1307;-77
2021/09/21 01:41:17;;;;;;;;;;;21.10;71.80;;;;;;5033661;28;1146;-77
2021/09/21 01:43:43;;;;;;;;;;;21.10;71.00;;;;;;5046938;28;1183;-77
2021/09/21 01:46:12;;;;;;;;;;;21.20;71.20;;;;;;5013773;28;1296;-77
2021/09/21 01:48:37;;;;;;;;;;;21.10;71.00;;;;;;5039751;28;1980;-78
2021/09/21 01:51:06;;;;;;;;;;;21.10;71.10;;;;;;5007584;28;1109;-78
2021/09/21 01:53:40;;;;;;;;;;;21.10;71.10;;;;;;5001643;28;1190;-77
2021/09/21 02:01:16;;;;;;;;;;;21.10;71.10;;;;;;5034065;28;1148;-78
2021/09/21 02:03:42;;;;;;;;;;;21.10;71.10;;;;;;5014095;28;1271;-77
2021/09/21 02:06:08;;;;;;;;;;;21.10;71.10;;;;;;5020120;28;1346;-77
2021/09/21 02:08:33;;;;;;;;;;;21.10;71.20;;;;;;5026587;28;1914;-77
2021/09/21 02:10:59;;;;;;;;;;;21.10;71.20;;;;;;5026592;28;1185;-78
2021/09/21 02:13:24;;;;;;;;;;;21.10;71.20;;;;;;5014763;28;1297;-77
2021/09/21 02:15:50;;;;;;;;;;;21.10;71.20;;;;;;5020308;28;1309;-79
2021/09/21 02:18:15;;;;;;;;;;;21.10;71.20;;;;;;5017565;28;1299;-79
2021/09/21 02:20:41;;;;;;;;;;;21.10;71.30;;;;;;5053922;28;1084;-80
2021/09/21 02:23:06;;;;;;;;;;;21.10;71.20;;;;;;5047737;28;1028;-78
2021/09/21 02:25:32;;;;;;;;;;;21.10;71.30;;;;;;5036293;28;1198;-80
2021/09/21 02:27:57;;;;;;;;;;;21.10;71.30;;;;;;5017059;28;1910;-79
2021/09/21 02:30:22;;;;;;;;;;;21.10;71.30;;;;;;5038729;28;1144;-79
2021/09/21 02:32:49;;;;;;;;;;;21.10;71.30;;;;;;5030210;28;1053;-78
2021/09/21 02:35:15;;;;;;;;;;;21.10;71.40;;;;;;5023635;28;1362;-77
2021/09/21 02:37:40;;;;;;;;;;;21.10;71.40;;;;;;5020262;28;1284;-78
2021/09/21 02:40:08;;;;;;;;;;;21.10;71.60;;;;;;5035828;28;1212;-78
2021/09/21 02:42:33;;;;;;;;;;;21.10;71.40;;;;;;5020067;28;1292;-79
2021/09/21 02:44:59;;;;;;;;;;;21.10;71.40;;;;;;5019904;28;1218;-78
2021/09/21 02:47:24;;;;;;;;;;;21.10;71.40;;;;;;5038439;28;1233;-78
2021/09/21 02:49:49;;;;;;;;;;;21.10;71.40;;;;;;5020442;28;1915;-79
2021/09/21 02:52:15;;;;;;;;;;;21.00;71.40;;;;;;5020627;28;1095;-78
2021/09/21 02:54:40;;;;;;;;;;;21.00;71.40;;;;;;5039587;28;1298;-78
2021/09/21 02:57:06;;;;;;;;;;;21.10;71.50;;;;;;5064201;28;1127;-79
2021/09/21 02:59:31;;;;;;;;;;;21.10;71.50;;;;;;5020104;28;1267;-77
2021/09/21 03:01:56;;;;;;;;;;;21.00;71.50;;;;;;5016760;28;1152;-77
2021/09/21 03:04:28;;;;;;;;;;;21.10;71.50;;;;;;5035563;28;1105;-80
2021/09/21 03:07:03;;;;;;;;;;;21.10;71.50;;;;;;5025992;28;1247;-77
2021/09/21 03:12:13;;;;;;;;;;;21.10;71.60;;;;;;5037642;28;1217;-77
2021/09/21 03:17:26;;;;;;;;;;;21.10;71.60;;;;;;5053047;28;1178;-77
2021/09/21 03:19:55;;;;;;;;;;;21.00;71.60;;;;;;5016093;28;1438;-77
2021/09/21 03:22:21;;;;;;;;;;;21.00;71.50;;;;;;5033985;28;1235;-77
2021/09/21 03:24:46;;;;;;;;;;;21.00;71.50;;;;;;5035380;28;1311;-77
2021/09/21 03:27:12;;;;;;;;;;;21.00;71.60;;;;;;5053589;28;1116;-78
2021/09/21 03:29:37;;;;;;;;;;;21.00;71.60;;;;;;5016283;28;1902;-80
2021/09/21 03:32:03;;;;;;;;;;;21.00;71.60;;;;;;5036955;28;1038;-77
2021/09/21 03:34:28;;;;;;;;;;;21.00;71.60;;;;;;5046134;28;1083;-76
2021/09/21 03:36:54;;;;;;;;;;;21.00;71.60;;;;;;5038542;28;1064;-77
2021/09/21 03:39:19;;;;;;;;;;;21.00;71.60;;;;;;5082302;23;1931;-69
2021/09/21 03:41:45;;;;;;;;;;;21.00;71.60;;;;;;5054255;28;1625;-69
2021/09/21 03:44:10;;;;;;;;;;;21.00;71.60;;;;;;5054882;28;1650;-69
2021/09/21 03:46:36;;;;;;;;;;;21.00;71.60;;;;;;5054336;28;1116;-69
2021/09/21 03:49:01;;;;;;;;;;;21.00;71.60;;;;;;5026594;28;1973;-69
2021/09/21 03:51:27;;;;;;;;;;;21.00;71.60;;;;;;5034633;28;1579;-70
2021/09/21 03:53:52;;;;;;;;;;;21.00;71.60;;;;;;5034571;28;1677;-70
2021/09/21 03:56:18;;;;;;;;;;;21.00;71.60;;;;;;5034312;28;1428;-70
2021/09/21 03:58:43;;;;;;;;;;;21.00;71.70;;;;;;5033290;28;1626;-69
2021/09/21 04:01:09;;;;;;;;;;;21.00;71.70;;;;;;5033132;28;1424;-71
2021/09/21 04:03:34;;;;;;;;;;;21.00;71.70;;;;;;5033168;28;1226;-70
2021/09/21 04:05:59;;;;;;;;;;;21.00;72.00;;;;;;5033942;28;1242;-70
2021/09/21 04:08:25;;;;;;;;;;;21.00;71.70;;;;;;5016363;28;1891;-70
2021/09/21 04:10:51;;;;;;;;;;;21.00;71.70;;;;;;5034174;28;1497;-70
2021/09/21 04:13:16;;;;;;;;;;;21.00;71.70;;;;;;5034280;28;1687;-70
2021/09/21 04:15:42;;;;;;;;;;;21.00;71.70;;;;;;5033858;28;953;-70
2021/09/21 04:18:08;;;;;;;;;;;21.00;71.70;;;;;;5033903;28;1420;-70
2021/09/21 04:20:34;;;;;;;;;;;21.00;71.70;;;;;;5016520;28;1436;-70
2021/09/21 04:22:59;;;;;;;;;;;21.00;71.70;;;;;;5024416;28;1053;-71
2021/09/21 04:25:25;;;;;;;;;;;21.00;71.70;;;;;;5030100;28;1735;-70
2021/09/21 04:27:50;;;;;;;;;;;21.00;71.70;;;;;;5033745;28;1394;-71
2021/09/21 04:30:21;;;;;;;;;;;21.00;71.70;;;;;;5033739;28;1898;-71
2021/09/21 04:32:47;;;;;;;;;;;21.00;71.70;;;;;;5034096;28;1650;-70
2021/09/21 04:35:12;;;;;;;;;;;21.00;71.70;;;;;;5033601;28;1444;-70
2021/09/21 04:37:38;;;;;;;;;;;21.00;71.70;;;;;;5033076;28;1662;-70
2021/09/21 04:40:04;;;;;;;;;;;21.00;71.70;;;;;;5033532;28;1344;-70
2021/09/21 04:42:29;;;;;;;;;;;21.00;71.70;;;;;;5016193;28;1723;-69
2021/09/21 04:44:55;;;;;;;;;;;21.00;71.80;;;;;;5033527;28;1349;-69
2021/09/21 04:47:20;;;;;;;;;;;21.00;71.80;;;;;;5015756;28;1476;-69
2021/09/21 04:49:46;;;;;;;;;;;21.00;71.80;;;;;;5033467;28;1973;-69
2021/09/21 04:52:11;;;;;;;;;;;21.00;71.80;;;;;;5033418;28;1048;-70
2021/09/21 04:54:37;;;;;;;;;;;21.00;71.80;;;;;;5015650;28;1523;-70
2021/09/21 04:57:02;;;;;;;;;;;21.00;71.80;;;;;;5033091;28;1658;-69
2021/09/21 04:59:28;;;;;;;;;;;21.00;71.80;;;;;;5033385;28;1357;-69
2021/09/21 05:01:53;;;;;;;;;;;21.00;71.80;;;;;;5033277;28;1375;-69
2021/09/21 05:04:18;;;;;;;;;;;21.00;71.80;;;;;;5033466;28;1234;-69
2021/09/21 05:06:44;;;;;;;;;;;21.00;71.80;;;;;;5015210;28;1465;-69
2021/09/21 05:09:13;;;;;;;;;;;21.00;71.80;;;;;;5015147;28;1905;-70
2021/09/21 05:11:39;;;;;;;;;;;21.00;71.80;;;;;;5033292;28;1405;-69
2021/09/21 05:14:04;;;;;;;;;;;21.00;71.80;;;;;;5033066;28;1699;-69
2021/09/21 05:16:29;;;;;;;;;;;21.00;71.80;;;;;;5032732;28;1378;-69
2021/09/21 05:18:55;;;;;;;;;;;21.00;71.90;;;;;;5032938;28;1352;-69
2021/09/21 05:21:20;;;;;;;;;;;21.00;71.80;;;;;;5033047;28;1360;-71
2021/09/21 05:23:46;;;;;;;;;;;21.00;71.80;;;;;;5032981;28;1490;-70
2021/09/21 05:26:11;;;;;;;;;;;21.00;71.90;;;;;;5032138;28;1390;-70
2021/09/21 05:28:37;;;;;;;;;;;21.00;71.90;;;;;;5032617;28;1926;-70
2021/09/21 05:31:02;;;;;;;;;;;21.00;71.90;;;;;;5032676;28;1414;-70
2021/09/21 05:33:27;;;;;;;;;;;21.00;71.90;;;;;;5015489;28;1494;-69
2021/09/21 05:35:53;;;;;;;;;;;21.00;71.90;;;;;;5032657;28;1378;-70
2021/09/21 05:38:18;;;;;;;;;;;21.00;71.90;;;;;;5032580;28;1395;-71
2021/09/21 05:40:44;;;;;;;;;;;21.00;71.90;;;;;;5032824;28;1674;-70
2021/09/21 05:43:09;;;;;;;;;;;21.00;71.90;;;;;;4998813;28;1583;-69
2021/09/21 05:45:35;;;;;;;;;;;21.00;71.90;;;;;;5032525;28;863;-70
2021/09/21 05:48:00;;;;;;;;;;;21.00;71.90;;;;;;5034674;28;1910;-70
2021/09/21 05:50:25;;;;;;;;;;;21.00;71.90;;;;;;5019082;28;1631;-70
2021/09/21 05:52:51;;;;;;;;;;;21.00;72.70;;;;;;5019258;28;1689;-70
2021/09/21 05:55:16;;;;;;;;;;;21.00;71.90;;;;;;5036831;28;888;-68
2021/09/21 05:57:44;;;;;;;;;;;21.00;72.00;;;;;;5036575;28;1364;-69
2021/09/21 06:00:10;;;;;;;;;;;20.90;71.90;;;;;;5036488;28;1219;-70
2021/09/21 06:02:35;;;;;;;;;;;21.00;72.10;;;;;;5036459;28;1425;-69
2021/09/21 06:05:00;;;;;;;;;;;21.00;72.10;;;;;;5019054;28;1384;-69
2021/09/21 06:07:26;;;;;;;;;;;21.00;72.10;;;;;;5036162;28;1348;-69
2021/09/21 06:09:51;;;;;;;;;;;21.00;72.00;;;;;;5018781;28;1891;-69
2021/09/21 06:12:17;;;;;;;;;;;21.00;72.00;;;;;;5036331;28;1424;-69
2021/09/21 06:14:42;;;;;;;;;;;21.00;71.90;;;;;;5036298;28;1387;-70
2021/09/21 06:17:08;;;;;;;;;;;21.10;71.90;;;;;;5036157;28;1159;-69
2021/09/21 06:19:33;;;;;;;;;;;21.10;71.80;;;;;;5022996;28;1200;-69
2021/09/21 06:21:58;;;;;;;;;;;21.10;71.70;;;;;;5036391;28;1369;-70
2021/09/21 06:24:24;;;;;;;;;;;21.10;71.70;;;;;;5016011;28;1618;-70
2021/09/21 06:26:49;;;;;;;;;;;21.10;71.60;;;;;;5027618;28;1874;-67
2021/09/21 06:29:15;;;;;;;;;;;21.10;71.50;;;;;;5034395;28;1899;-69
2021/09/21 06:31:41;;;;;;;;;;;21.10;71.40;;;;;;5035716;28;1603;-69
2021/09/21 06:34:06;;;;;;;;;;;21.20;71.40;;;;;;5016832;28;1723;-70
2021/09/21 06:36:32;;;;;;;;;;;21.20;71.30;;;;;;5034926;28;1349;-69
2021/09/21 06:38:58;;;;;;;;;;;21.20;72.00;;;;;;5018043;28;1815;-68
2021/09/21 06:41:24;;;;;;;;;;;21.20;71.20;;;;;;5035853;28;1446;-68
2021/09/21 06:43:49;;;;;;;;;;;21.20;71.10;;;;;;5035676;28;1717;-68
2021/09/21 06:46:15;;;;;;;;;;;21.20;71.10;;;;;;5017747;28;1385;-68
2021/09/21 06:48:40;;;;;;;;;;;21.30;71.10;;;;;;5035680;28;1981;-71
2021/09/21 06:51:06;;;;;;;;;;;21.30;71.10;;;;;;5034453;28;1621;-71
2021/09/21 06:53:31;;;;;;;;;;;21.30;71.10;;;;;;5033579;28;1665;-70
2021/09/21 06:55:57;;;;;;;;;;;21.30;70.90;;;;;;5035117;28;1367;-69
2021/09/21 06:58:22;;;;;;;;;;;21.30;70.90;;;;;;5035330;28;1749;-69
2021/09/21 07:00:48;;;;;;;;;;;21.30;70.90;;;;;;5034973;28;1268;-69
2021/09/21 07:03:13;;;;;;;;;;;21.30;70.80;;;;;;5017929;28;1645;-70
2021/09/21 07:05:38;;;;;;;;;;;21.30;70.80;;;;;;5035078;28;1526;-69
2021/09/21 07:08:04;;;;;;;;;;;21.30;70.70;;;;;;5017041;28;1967;-70
2021/09/21 07:10:29;;;;;;;;;;;21.30;70.80;;;;;;5010616;28;1360;-69
2021/09/21 07:12:55;;;;;;;;;;;21.30;70.70;;;;;;5035191;28;1433;-69
2021/09/21 07:15:23;;;;;;;;;;;21.30;70.70;;;;;;5017763;28;1669;-69
2021/09/21 07:17:49;;;;;;;;;;;21.40;70.70;;;;;;5017726;28;1373;-69
2021/09/21 07:20:15;;;;;;;;;;;21.30;70.60;;;;;;5017548;28;1393;-69
2021/09/21 07:22:40;;;;;;;;;;;21.40;70.70;;;;;;5034973;28;1767;-70
2021/09/21 07:25:06;;;;;;;;;;;21.40;70.60;;;;;;5017577;28;1260;-70
2021/09/21 07:27:31;;;;;;;;;;;21.40;70.60;;;;;;5034426;28;1386;-71
2021/09/21 07:29:57;;;;;;;;;;;21.40;70.50;;;;;;5015017;28;1973;-70
2021/09/21 07:32:22;;;;;;;;;;;21.40;70.50;;;;;;5033695;28;1664;-69
2021/09/21 07:34:48;;;;;;;;;;;21.40;70.50;;;;;;5035027;28;1400;-68
2021/09/21 07:37:13;;;;;;;;;;;21.40;70.50;;;;;;5027117;28;2009;-69
2021/09/21 07:39:39;;;;;;;;;;;21.40;70.40;;;;;;5032125;28;1376;-69
2021/09/21 07:42:04;;;;;;;;;;;21.40;70.40;;;;;;5010627;28;1423;-68
2021/09/21 07:44:29;;;;;;;;;;;21.40;70.40;;;;;;5011166;28;1621;-70
2021/09/21 07:46:56;;;;;;;;;;;21.40;70.40;;;;;;5034312;28;1698;-70
2021/09/21 07:49:22;;;;;;;;;;;21.40;70.40;;;;;;5000577;28;1966;-69
2021/09/21 07:51:47;;;;;;;;;;;21.40;70.40;;;;;;5034513;28;1398;-70
2021/09/21 07:54:12;;;;;;;;;;;21.40;70.40;;;;;;5034654;28;1590;-70
2021/09/21 07:56:38;;;;;;;;;;;21.40;70.40;;;;;;5033873;28;1284;-70
2021/09/21 07:59:05;;;;;;;;;;;21.40;70.40;;;;;;5026402;28;1494;-70
2021/09/21 08:01:30;;;;;;;;;;;21.40;70.50;;;;;;5033534;28;1381;-70
2021/09/21 08:03:56;;;;;;;;;;;21.40;70.50;;;;;;5034499;28;1674;-69
2021/09/21 08:06:25;;;;;;;;;;;21.40;70.50;;;;;;5034029;28;1441;-69
2021/09/21 08:08:50;;;;;;;;;;;21.40;70.50;;;;;;5034272;28;1973;-70
2021/09/21 08:11:16;;;;;;;;;;;21.40;70.50;;;;;;5032859;28;1802;-69
2021/09/21 08:13:41;;;;;;;;;;;21.40;70.50;;;;;;5016185;28;1695;-70
2021/09/21 08:16:07;;;;;;;;;;;21.40;70.50;;;;;;5028174;28;2003;-70
2021/09/21 08:18:32;;;;;;;;;;;21.40;70.60;;;;;;5004770;28;1529;-70
2021/09/21 08:20:57;;;;;;;;;;;21.40;70.60;;;;;;4988389;28;1734;-69
2021/09/21 08:23:23;;;;;;;;;;;21.40;70.60;;;;;;5005055;28;1688;-70
2021/09/21 08:25:48;;;;;;;;;;;21.40;70.60;;;;;;5033699;28;1442;-69
2021/09/21 08:28:14;;;;;;;;;;;21.30;70.50;;;;;;5033777;28;1894;-69
2021/09/21 08:30:39;;;;;;;;;;;21.40;70.70;;;;;;5028063;28;1569;-70
2021/09/21 08:33:05;;;;;;;;;;;21.30;70.60;;;;;;5016143;28;1380;-70
2021/09/21 08:35:30;;;;;;;;;;;21.30;70.60;;;;;;5033682;28;1637;-70
2021/09/21 08:37:56;;;;;;;;;;;21.30;70.70;;;;;;5015601;28;1699;-69
2021/09/21 08:40:21;;;;;;;;;;;21.30;70.70;;;;;;5012557;28;1341;-69
2021/09/21 08:42:47;;;;;;;;;;;21.30;70.70;;;;;;5032390;28;1403;-70
2021/09/21 08:45:12;;;;;;;;;;;21.30;70.70;;;;;;5015864;28;1621;-70
2021/09/21 08:47:38;;;;;;;;;;;21.30;70.70;;;;;;5032023;28;1667;-69
2021/09/21 08:50:04;;;;;;;;;;;21.30;70.80;;;;;;5032018;28;1906;-69
2021/09/21 08:52:30;;;;;;;;;;;21.30;70.80;;;;;;4991270;28;2283;-70
2021/09/21 08:54:55;;;;;;;;;;;21.30;70.80;;;;;;5006309;28;1525;-70
2021/09/21 08:57:21;;;;;;;;;;;21.30;70.80;;;;;;5029912;28;1463;-70
2021/09/21 08:59:49;;;;;;;;;;;21.30;70.80;;;;;;5014153;28;1597;-71
2021/09/21 09:02:14;;;;;;;;;;;21.30;70.90;;;;;;5032184;28;1250;-70
2021/09/21 09:04:40;;;;;;;;;;;21.30;70.90;;;;;;5033127;28;1211;-71
2021/09/21 09:07:05;;;;;;;;;;;21.30;70.90;;;;;;5030289;28;1459;-70
2021/09/21 09:09:32;;;;;;;;;;;21.30;70.90;;;;;;5014149;28;1964;-71
2021/09/21 09:11:58;;;;;;;;;;;21.30;70.90;;;;;;5031247;28;1682;-70
2021/09/21 09:14:24;;;;;;;;;;;21.30;71.00;;;;;;5032079;28;1435;-70
2021/09/21 09:16:53;;;;;;;;;;;21.30;71.00;;;;;;5031881;28;1064;-70
2021/09/21 09:19:18;;;;;;;;;;;21.20;70.90;;;;;;5015127;28;1291;-70
2021/09/21 09:21:45;;;;;;;;;;;21.20;71.00;;;;;;5002580;28;2114;-70
2021/09/21 09:24:11;;;;;;;;;;;21.20;71.00;;;;;;5013838;28;1450;-69
2021/09/21 09:26:37;;;;;;;;;;;21.20;71.00;;;;;;5025641;28;2092;-71
2021/09/21 09:29:05;;;;;;;;;;;21.20;71.00;;;;;;5019749;28;1906;-70
2021/09/21 09:31:32;;;;;;;;;;;21.20;71.00;;;;;;5009698;28;2283;-71
2021/09/21 09:34:06;;;;;;;;;;;21.20;71.00;;;;;;5007550;28;1887;-70
2021/09/21 09:36:32;;;;;;;;;;;21.20;71.10;;;;;;5025065;28;1669;-70
2021/09/21 09:39:00;;;;;;;;;;;21.20;71.10;;;;;;5029147;22;2456;-73
2021/09/21 09:41:36;;;;;;;;;;;21.20;71.10;;;;;;4994786;28;1619;-74
2021/09/21 09:44:06;;;;;;;;;;;21.20;71.10;;;;;;5023855;28;1378;-77
2021/09/21 09:46:44;;;;;;;;;;;21.20;71.80;;;;;;5024778;28;1324;-75
2021/09/21 09:49:10;;;;;;;;;;;21.20;71.10;;;;;;5018537;28;2037;-73
2021/09/21 09:51:46;;;;;;;;;;;21.20;71.20;;;;;;5004270;28;1591;-74
2021/09/21 09:54:11;;;;;;;;;;;21.20;71.20;;;;;;4999531;28;1624;-74
2021/09/21 09:56:37;;;;;;;;;;;21.20;71.20;;;;;;5002700;28;1386;-74
2021/09/21 09:59:02;;;;;;;;;;;21.20;71.20;;;;;;5002469;28;1377;-76
2021/09/21 10:01:27;;;;;;;;;;;21.20;71.30;;;;;;4994062;28;1413;-76
2021/09/21 10:03:53;;;;;;;;;;;21.20;71.30;;;;;;5001415;28;1323;-76
2021/09/21 10:06:18;;;;;;;;;;;21.20;71.30;;;;;;5001600;28;1514;-76
2021/09/21 10:08:45;;;;;;;;;;;21.20;71.30;;;;;;5001853;28;1949;-76
2021/09/21 10:11:11;;;;;;;;;;;21.20;71.40;;;;;;4994144;28;1355;-75
2021/09/21 10:13:36;;;;;;;;;;;21.20;71.40;;;;;;5002423;28;1216;-75
2021/09/21 10:16:01;;;;;;;;;;;21.20;71.50;;;;;;5003917;28;1280;-76
2021/09/21 10:18:27;;;;;;;;;;;21.20;71.40;;;;;;4991336;28;1167;-74
2021/09/21 10:20:59;;;;;;;;;;;21.20;71.70;;;;;;5009413;28;1426;-76
2021/09/21 10:23:39;;;;;;;;;;;21.20;71.80;;;;;;4995327;28;1587;-76
2021/09/21 10:26:09;;;;;;;;;;;21.20;71.70;;;;;;4995300;28;1406;-76
2021/09/21 10:28:37;;;;;;;;;;;21.20;71.90;;;;;;5013148;28;1949;-76
2021/09/21 10:31:03;;;;;;;;;;;21.20;71.80;;;;;;4991431;28;1600;-73
2021/09/21 10:33:29;;;;;;;;;;;21.20;72.00;;;;;;4991701;28;1429;-74
2021/09/21 10:35:54;;;;;;;;;;;21.20;71.90;;;;;;4994300;28;1593;-74
2021/09/21 10:38:20;;;;;;;;;;;21.20;71.80;;;;;;5015917;28;1366;-73
2021/09/21 10:40:47;;;;;;;;;;;21.20;71.90;;;;;;4998644;28;1596;-74
2021/09/21 10:43:31;;;;;;;;;;;21.20;71.90;;;;;;4982281;28;1440;-73
2021/09/21 10:46:08;;;;;;;;;;;21.20;71.90;;;;;;5015959;28;1359;-71
2021/09/21 10:48:36;;;;;;;;;;;21.20;71.90;;;;;;5014240;28;2110;-72
2021/09/21 10:51:01;;;;;;;;;;;21.20;72.00;;;;;;4997016;28;1312;-72
2021/09/21 10:53:27;;;;;;;;;;;21.20;72.00;;;;;;4998234;28;1681;-73
2021/09/21 10:55:58;;;;;;;;;;;21.20;72.00;;;;;;4997695;28;1731;-72
2021/09/21 10:58:24;;;;;;;;;;;21.20;72.00;;;;;;5016047;28;1124;-73
2021/09/21 11:00:49;;;;;;;;;;;21.20;72.00;;;;;;5015612;28;1342;-72
2021/09/21 11:03:15;;;;;;;;;;;21.20;72.00;;;;;;4994558;28;1660;-72
2021/09/21 11:05:40;;;;;;;;;;;21.20;72.00;;;;;;5009294;28;1639;-75
2021/09/21 11:08:08;;;;;;;;;;;21.20;72.00;;;;;;5014483;28;1376;-72
2021/09/21 11:10:37;;;;;;;;;;;21.10;71.90;;;;;;5013907;28;1651;-72
2021/09/21 11:13:13;;;;;;;;;;;21.10;72.00;;;;;;4997705;28;1376;-72
2021/09/21 11:15:38;;;;;;;;;;;21.20;72.00;;;;;;5015053;28;1650;-72
2021/09/21 11:18:04;;;;;;;;;;;21.20;72.00;;;;;;4997834;28;1367;-72
2021/09/21 11:20:30;;;;;;;;;;;21.10;72.00;;;;;;5014401;28;1634;-72
2021/09/21 11:22:58;;;;;;;;;;;21.10;72.00;;;;;;4996316;28;1385;-71
2021/09/21 11:25:26;;;;;;;;;;;21.10;71.90;;;;;;4996234;28;1579;-72
2021/09/21 11:27:52;;;;;;;;;;;21.10;72.00;;;;;;4996658;28;1680;-74
2021/09/21 11:30:17;;;;;;;;;;;21.10;72.00;;;;;;5014322;28;1903;-74
2021/09/21 11:32:43;;;;;;;;;;;21.20;72.00;;;;;;5014259;28;1623;-76
2021/09/21 11:35:10;;;;;;;;;;;21.10;72.00;;;;;;4996593;28;1710;-75
2021/09/21 11:37:35;;;;;;;;;;;21.10;72.00;;;;;;4995938;28;1729;-75
2021/09/21 11:40:01;;;;;;;;;;;21.20;72.00;;;;;;4997542;28;1692;-76
2021/09/21 11:42:28;;;;;;;;;;;21.20;72.00;;;;;;4997726;28;1132;-74
2021/09/21 11:45:01;;;;;;;;;;;21.20;72.10;;;;;;4997634;28;1655;-75
2021/09/21 11:47:36;;;;;;;;;;;21.20;72.00;;;;;;4997243;28;1358;-76
2021/09/21 11:50:02;;;;;;;;;;;21.20;72.20;;;;;;5014541;28;2242;-75
2021/09/21 11:52:27;;;;;;;;;;;21.20;72.30;;;;;;4993918;28;1383;-75
2021/09/21 11:54:52;;;;;;;;;;;21.30;72.30;;;;;;5013201;28;1704;-76
2021/09/21 11:57:18;;;;;;;;;;;21.30;72.20;;;;;;5014356;28;1577;-76
2021/09/21 11:59:43;;;;;;;;;;;21.30;72.20;;;;;;4993966;28;1616;-75
2021/09/21 12:02:15;;;;;;;;;;;21.30;72.20;;;;;;5006405;28;1352;-76
2021/09/21 12:04:47;;;;;;;;;;;21.30;72.20;;;;;;4993633;28;1666;-75
2021/09/21 12:07:12;;;;;;;;;;;21.30;72.20;;;;;;5007411;28;1223;-75
2021/09/21 12:09:38;;;;;;;;;;;21.30;72.30;;;;;;5014391;28;1967;-75
2021/09/21 12:12:18;;;;;;;;;;;21.30;72.20;;;;;;5014443;28;1343;-74
2021/09/21 12:14:53;;;;;;;;;;;21.30;72.30;;;;;;4997322;28;1629;-74
2021/09/21 12:17:19;;;;;;;;;;;21.30;72.40;;;;;;5013973;28;1616;-75
2021/09/21 12:19:44;;;;;;;;;;;21.30;72.50;;;;;;5014454;28;1656;-75
2021/09/21 12:22:09;;;;;;;;;;;21.30;72.70;;;;;;5014279;28;1437;-76
2021/09/21 12:24:35;;;;;;;;;;;21.30;72.70;;;;;;4996981;28;1624;-75
2021/09/21 12:27:02;;;;;;;;;;;21.30;72.60;;;;;;4995795;28;1490;-76
2021/09/21 12:29:30;;;;;;;;;;;21.30;72.60;;;;;;5012148;28;1975;-75
2021/09/21 12:31:56;;;;;;;;;;;21.20;72.70;;;;;;4987349;28;2204;-74
2021/09/21 12:34:21;;;;;;;;;;;21.20;72.90;;;;;;5004736;28;1672;-75
2021/09/21 12:36:49;;;;;;;;;;;21.20;73.00;;;;;;4995610;28;1666;-74
2021/09/21 12:39:16;;;;;;;;;;;21.20;72.80;;;;;;4990842;28;1618;-75
2021/09/21 12:41:42;;;;;;;;;;;21.20;72.80;;;;;;5013317;28;1603;-74
2021/09/21 12:44:09;;;;;;;;;;;21.20;72.80;;;;;;4993315;28;1624;-75
2021/09/21 12:46:34;;;;;;;;;;;21.20;72.80;;;;;;4998652;28;2038;-75
2021/09/21 12:49:00;;;;;;;;;;;21.20;72.70;;;;;;4989063;28;1958;-75
2021/09/21 12:51:34;;;;;;;;;;;21.20;72.70;;;;;;5014880;28;1658;-76
2021/09/21 12:54:02;;;;;;;;;;;21.20;72.70;;;;;;5001477;28;1261;-75
2021/09/21 12:56:29;;;;;;;;;;;21.20;72.70;;;;;;5005888;28;1238;-76
2021/09/21 12:59:01;;;;;;;;;;;21.20;72.60;;;;;;5003074;28;1272;-76
2021/09/21 13:01:26;;;;;;;;;;;21.20;72.60;;;;;;5002145;28;1280;-74
2021/09/21 13:03:51;;;;;;;;;;;21.20;72.60;;;;;;5004210;28;1252;-74
2021/09/21 13:06:17;;;;;;;;;;;21.20;72.50;;;;;;4988689;28;1390;-74
2021/09/21 13:08:43;;;;;;;;;;;21.10;72.40;;;;;;5003949;28;1974;-75
2021/09/21 13:11:08;;;;;;;;;;;21.10;72.40;;;;;;5007279;28;1253;-74
2021/09/21 13:13:33;;;;;;;;;;;21.10;72.40;;;;;;5002038;28;1929;-74
2021/09/21 13:16:01;;;;;;;;;;;21.20;72.50;;;;;;4991561;28;1089;-75
2021/09/21 13:18:26;;;;;;;;;;;21.10;72.40;;;;;;5007149;28;1351;-74
2021/09/21 13:20:52;;;;;;;;;;;21.20;72.40;;;;;;5004927;28;1300;-76
2021/09/21 13:23:17;;;;;;;;;;;21.10;72.40;;;;;;5005160;28;1240;-74
2021/09/21 13:25:43;;;;;;;;;;;21.10;72.40;;;;;;5006371;28;1445;-73
2021/09/21 13:28:08;;;;;;;;;;;21.10;72.30;;;;;;5005820;28;1295;-75
2021/09/21 13:30:33;;;;;;;;;;;21.10;72.30;;;;;;5004372;28;1902;-75
2021/09/21 13:32:59;;;;;;;;;;;21.10;72.30;;;;;;4985084;28;1348;-74
2021/09/21 13:35:24;;;;;;;;;;;21.10;72.30;;;;;;4991842;28;1322;-75
2021/09/21 13:37:50;;;;;;;;;;;21.10;72.30;;;;;;5011909;28;1260;-75
2021/09/21 13:40:17;;;;;;;;;;;21.10;72.30;;;;;;4995437;28;1363;-75
2021/09/21 13:42:43;;;;;;;;;;;21.10;72.30;;;;;;5012731;28;1270;-75
2021/09/21 13:45:08;;;;;;;;;;;21.10;72.30;;;;;;4995659;28;1304;-75
2021/09/21 13:47:33;;;;;;;;;;;21.10;72.30;;;;;;4992076;28;1085;-75
2021/09/21 13:49:59;;;;;;;;;;;21.10;73.10;;;;;;5009647;28;1973;-75
2021/09/21 13:52:25;;;;;;;;;;;21.10;72.30;;;;;;5012707;28;1395;-75
2021/09/21 13:54:52;;;;;;;;;;;21.10;72.30;;;;;;4995182;28;1359;-75
2021/09/21 13:57:17;;;;;;;;;;;21.10;72.30;;;;;;5012511;28;1171;-74
2021/09/21 13:59:43;;;;;;;;;;;21.10;72.30;;;;;;4992079;28;1370;-75
2021/09/21 14:02:08;;;;;;;;;;;21.10;73.00;;;;;;5003335;28;1266;-75
2021/09/21 14:04:34;;;;;;;;;;;21.10;72.30;;;;;;5012686;28;1555;-74
2021/09/21 14:06:59;;;;;;;;;;;21.10;72.30;;;;;;4991797;28;1294;-76
2021/09/21 14:09:27;;;;;;;;;;;21.10;72.30;;;;;;5011456;28;1898;-75
2021/09/21 14:11:53;;;;;;;;;;;21.10;72.30;;;;;;5016244;28;1385;-75
2021/09/21 14:14:19;;;;;;;;;;;21.10;72.30;;;;;;4999055;28;1389;-75
2021/09/21 14:16:44;;;;;;;;;;;21.10;72.30;;;;;;4998548;28;1291;-74
2021/09/21 14:19:10;;;;;;;;;;;21.10;72.30;;;;;;4998784;28;1350;-75
2021/09/21 14:21:36;;;;;;;;;;;21.10;72.30;;;;;;5016565;28;1286;-75
2021/09/21 14:24:01;;;;;;;;;;;21.10;72.30;;;;;;4998537;28;1284;-74
2021/09/21 14:26:26;;;;;;;;;;;21.10;72.30;;;;;;4998348;28;1105;-75
2021/09/21 14:28:52;;;;;;;;;;;21.10;72.30;;;;;;5016042;28;1890;-75
2021/09/21 14:31:17;;;;;;;;;;;21.10;72.30;;;;;;5016478;28;1280;-75
2021/09/21 14:33:43;;;;;;;;;;;21.10;72.30;;;;;;5016154;28;1387;-75
2021/09/21 14:36:09;;;;;;;;;;;21.10;72.30;;;;;;4998380;28;1275;-75